sensor_id;sensor_type;location;lat;lon;timestamp;P1;durP1;ratioP1;P2;durP2;ratioP2
46613;SDS011;32338;50.430;6.806;2022-09-13T00:00:20;454.10;;;425.60;;
46613;SDS011;32338;50.430;6.806;2022-09-13T00:02:47;449.45;;;421.83;;
46613;SDS011;32338;50.430;6.806;2022-09-13T00:05:14;439.08;;;411.90;;
46613;SDS011;32338;50.430;6.806;2022-09-13T00:07:41;456.58;;;427.85;;
46613;SDS011;32338;50.430;6.806;2022-09-13T00:10:07;437.02;;;409.90;;
46613;SDS011;32338;50.430;6.806;2022-09-13T00:12:34;439.27;;;411.92;;
46613;SDS011;32338;50.430;6.806;2022-09-13T00:15:01;469.33;;;440.50;;
46613;SDS011;32338;50.430;6.806;2022-09-13T00:17:29;461.23;;;432.83;;
46613;SDS011;32338;50.430;6.806;2022-09-13T00:19:56;457.60;;;429.67;;
46613;SDS011;32338;50.430;6.806;2022-09-13T00:22:22;438.85;;;412.33;;
46613;SDS011;32338;50.430;6.806;2022-09-13T00:24:49;454.27;;;426.33;;
46613;SDS011;32338;50.430;6.806;2022-09-13T00:27:15;421.73;;;395.63;;
46613;SDS011;32338;50.430;6.806;2022-09-13T00:29:42;437.30;;;410.52;;
46613;SDS011;32338;50.430;6.806;2022-09-13T00:32:09;412.35;;;386.50;;
46613;SDS011;32338;50.430;6.806;2022-09-13T00:34:36;451.15;;;423.65;;
46613;SDS011;32338;50.430;6.806;2022-09-13T00:37:03;431.65;;;404.38;;
46613;SDS011;32338;50.430;6.806;2022-09-13T00:39:30;421.35;;;395.90;;
46613;SDS011;32338;50.430;6.806;2022-09-13T00:41:57;418.27;;;392.83;;
46613;SDS011;32338;50.430;6.806;2022-09-13T00:44:46;405.65;;;380.73;;
46613;SDS011;32338;50.430;6.806;2022-09-13T00:47:18;427.98;;;402.00;;
46613;SDS011;32338;50.430;6.806;2022-09-13T00:49:49;437.65;;;410.80;;
46613;SDS011;32338;50.430;6.806;2022-09-13T00:52:19;454.17;;;425.30;;
46613;SDS011;32338;50.430;6.806;2022-09-13T00:54:51;443.10;;;414.17;;
46613;SDS011;32338;50.430;6.806;2022-09-13T00:57:25;470.57;;;441.17;;
46613;SDS011;32338;50.430;6.806;2022-09-13T00:59:55;443.17;;;415.38;;
46613;SDS011;32338;50.430;6.806;2022-09-13T01:02:28;457.63;;;428.23;;
46613;SDS011;32338;50.430;6.806;2022-09-13T01:04:56;449.23;;;420.70;;
46613;SDS011;32338;50.430;6.806;2022-09-13T01:07:23;437.27;;;409.80;;
46613;SDS011;32338;50.430;6.806;2022-09-13T01:09:49;454.10;;;425.48;;
46613;SDS011;32338;50.430;6.806;2022-09-13T01:12:21;414.60;;;389.63;;
46613;SDS011;32338;50.430;6.806;2022-09-13T01:14:57;446.58;;;418.80;;
46613;SDS011;32338;50.430;6.806;2022-09-13T01:17:25;445.63;;;417.30;;
46613;SDS011;32338;50.430;6.806;2022-09-13T01:19:53;453.50;;;425.10;;
46613;SDS011;32338;50.430;6.806;2022-09-13T01:25:29;433.25;;;405.90;;
46613;SDS011;32338;50.430;6.806;2022-09-13T01:28:33;430.98;;;403.95;;
46613;SDS011;32338;50.430;6.806;2022-09-13T01:31:15;416.95;;;390.33;;
46613;SDS011;32338;50.430;6.806;2022-09-13T01:33:54;439.48;;;412.13;;
46613;SDS011;32338;50.430;6.806;2022-09-13T01:36:46;438.05;;;411.27;;
46613;SDS011;32338;50.430;6.806;2022-09-13T01:39:44;451.85;;;423.60;;
46613;SDS011;32338;50.430;6.806;2022-09-13T01:42:25;440.23;;;412.77;;
46613;SDS011;32338;50.430;6.806;2022-09-13T01:45:03;446.25;;;417.23;;
46613;SDS011;32338;50.430;6.806;2022-09-13T01:47:41;451.42;;;423.38;;
46613;SDS011;32338;50.430;6.806;2022-09-13T01:50:15;466.50;;;436.30;;
46613;SDS011;32338;50.430;6.806;2022-09-13T01:52:49;442.58;;;414.63;;
46613;SDS011;32338;50.430;6.806;2022-09-13T01:55:25;461.15;;;433.48;;
46613;SDS011;32338;50.430;6.806;2022-09-13T01:58:01;460.55;;;432.05;;
46613;SDS011;32338;50.430;6.806;2022-09-13T02:00:35;407.65;;;382.80;;
46613;SDS011;32338;50.430;6.806;2022-09-13T02:03:09;422.00;;;396.02;;
46613;SDS011;32338;50.430;6.806;2022-09-13T02:05:43;439.65;;;412.45;;
46613;SDS011;32338;50.430;6.806;2022-09-13T02:08:14;444.17;;;415.80;;
46613;SDS011;32338;50.430;6.806;2022-09-13T02:10:45;415.65;;;390.17;;
46613;SDS011;32338;50.430;6.806;2022-09-13T02:13:15;472.33;;;442.80;;
46613;SDS011;32338;50.430;6.806;2022-09-13T02:15:55;468.80;;;438.92;;
46613;SDS011;32338;50.430;6.806;2022-09-13T02:18:27;433.50;;;405.85;;
46613;SDS011;32338;50.430;6.806;2022-09-13T02:20:58;451.10;;;423.67;;
46613;SDS011;32338;50.430;6.806;2022-09-13T02:23:31;456.40;;;428.27;;
46613;SDS011;32338;50.430;6.806;2022-09-13T02:26:02;428.13;;;401.60;;
46613;SDS011;32338;50.430;6.806;2022-09-13T02:28:33;430.55;;;402.88;;
46613;SDS011;32338;50.430;6.806;2022-09-13T02:31:03;442.48;;;415.25;;
46613;SDS011;32338;50.430;6.806;2022-09-13T02:33:34;442.42;;;414.60;;
46613;SDS011;32338;50.430;6.806;2022-09-13T02:36:04;450.05;;;422.13;;
46613;SDS011;32338;50.430;6.806;2022-09-13T02:38:36;450.77;;;422.88;;
46613;SDS011;32338;50.430;6.806;2022-09-13T02:41:10;439.95;;;412.55;;
46613;SDS011;32338;50.430;6.806;2022-09-13T02:43:41;444.33;;;417.45;;
46613;SDS011;32338;50.430;6.806;2022-09-13T02:46:16;460.17;;;430.85;;
46613;SDS011;32338;50.430;6.806;2022-09-13T02:48:53;464.02;;;434.95;;
46613;SDS011;32338;50.430;6.806;2022-09-13T02:51:28;445.67;;;417.80;;
46613;SDS011;32338;50.430;6.806;2022-09-13T02:54:01;432.98;;;406.42;;
46613;SDS011;32338;50.430;6.806;2022-09-13T02:56:41;442.77;;;415.27;;
46613;SDS011;32338;50.430;6.806;2022-09-13T02:59:14;467.63;;;437.60;;
46613;SDS011;32338;50.430;6.806;2022-09-13T03:01:44;457.05;;;429.15;;
46613;SDS011;32338;50.430;6.806;2022-09-13T03:04:15;437.02;;;409.63;;
46613;SDS011;32338;50.430;6.806;2022-09-13T03:06:42;447.90;;;419.70;;
46613;SDS011;32338;50.430;6.806;2022-09-13T03:09:08;454.58;;;426.08;;
46613;SDS011;32338;50.430;6.806;2022-09-13T03:11:38;446.52;;;419.08;;
46613;SDS011;32338;50.430;6.806;2022-09-13T03:14:20;446.80;;;418.85;;
46613;SDS011;32338;50.430;6.806;2022-09-13T03:17:07;436.65;;;409.75;;
46613;SDS011;32338;50.430;6.806;2022-09-13T03:19:59;434.98;;;407.50;;
46613;SDS011;32338;50.430;6.806;2022-09-13T03:28:32;447.65;;;419.98;;
46613;SDS011;32338;50.430;6.806;2022-09-13T03:31:05;443.75;;;416.08;;
46613;SDS011;32338;50.430;6.806;2022-09-13T03:33:37;422.85;;;396.15;;
46613;SDS011;32338;50.430;6.806;2022-09-13T03:36:11;433.05;;;405.90;;
46613;SDS011;32338;50.430;6.806;2022-09-13T03:38:41;447.00;;;419.88;;
46613;SDS011;32338;50.430;6.806;2022-09-13T03:41:16;449.23;;;421.17;;
46613;SDS011;32338;50.430;6.806;2022-09-13T03:43:47;457.45;;;429.80;;
46613;SDS011;32338;50.430;6.806;2022-09-13T03:46:19;460.65;;;432.55;;
46613;SDS011;32338;50.430;6.806;2022-09-13T03:48:50;446.83;;;419.55;;
46613;SDS011;32338;50.430;6.806;2022-09-13T03:51:19;436.52;;;409.13;;
46613;SDS011;32338;50.430;6.806;2022-09-13T03:53:47;428.92;;;403.33;;
46613;SDS011;32338;50.430;6.806;2022-09-13T03:56:20;440.75;;;413.13;;
46613;SDS011;32338;50.430;6.806;2022-09-13T03:58:47;448.90;;;421.25;;
46613;SDS011;32338;50.430;6.806;2022-09-13T04:01:13;428.55;;;402.35;;
46613;SDS011;32338;50.430;6.806;2022-09-13T04:03:44;438.67;;;412.30;;
46613;SDS011;32338;50.430;6.806;2022-09-13T04:06:10;458.23;;;430.20;;
46613;SDS011;32338;50.430;6.806;2022-09-13T04:08:38;452.00;;;423.42;;
46613;SDS011;32338;50.430;6.806;2022-09-13T04:11:05;446.45;;;418.35;;
46613;SDS011;32338;50.430;6.806;2022-09-13T04:13:33;463.85;;;434.20;;
46613;SDS011;32338;50.430;6.806;2022-09-13T04:16:00;440.45;;;413.52;;
46613;SDS011;32338;50.430;6.806;2022-09-13T04:18:27;431.20;;;403.88;;
46613;SDS011;32338;50.430;6.806;2022-09-13T04:20:55;452.20;;;424.55;;
46613;SDS011;32338;50.430;6.806;2022-09-13T04:23:23;433.08;;;406.55;;
46613;SDS011;32338;50.430;6.806;2022-09-13T04:25:52;436.35;;;410.13;;
46613;SDS011;32338;50.430;6.806;2022-09-13T04:28:19;436.00;;;409.00;;
46613;SDS011;32338;50.430;6.806;2022-09-13T04:30:47;426.90;;;400.83;;
46613;SDS011;32338;50.430;6.806;2022-09-13T04:33:14;402.02;;;377.13;;
46613;SDS011;32338;50.430;6.806;2022-09-13T04:35:41;472.50;;;442.92;;
46613;SDS011;32338;50.430;6.806;2022-09-13T04:38:08;463.35;;;434.33;;
46613;SDS011;32338;50.430;6.806;2022-09-13T04:40:35;435.48;;;406.98;;
46613;SDS011;32338;50.430;6.806;2022-09-13T04:43:04;480.83;;;450.83;;
46613;SDS011;32338;50.430;6.806;2022-09-13T04:45:31;437.13;;;410.13;;
46613;SDS011;32338;50.430;6.806;2022-09-13T04:47:57;447.00;;;419.05;;
46613;SDS011;32338;50.430;6.806;2022-09-13T04:50:24;465.08;;;435.65;;
46613;SDS011;32338;50.430;6.806;2022-09-13T04:52:53;430.70;;;403.85;;
46613;SDS011;32338;50.430;6.806;2022-09-13T04:55:20;429.50;;;401.80;;
46613;SDS011;32338;50.430;6.806;2022-09-13T04:57:46;440.85;;;412.95;;
46613;SDS011;32338;50.430;6.806;2022-09-13T05:00:14;448.40;;;420.38;;
46613;SDS011;32338;50.430;6.806;2022-09-13T05:02:41;428.38;;;401.55;;
46613;SDS011;32338;50.430;6.806;2022-09-13T05:05:08;434.33;;;407.52;;
46613;SDS011;32338;50.430;6.806;2022-09-13T05:07:35;442.02;;;414.50;;
46613;SDS011;32338;50.430;6.806;2022-09-13T05:10:01;424.58;;;398.17;;
46613;SDS011;32338;50.430;6.806;2022-09-13T05:12:28;427.35;;;400.08;;
46613;SDS011;32338;50.430;6.806;2022-09-13T05:14:55;463.15;;;434.65;;
46613;SDS011;32338;50.430;6.806;2022-09-13T05:17:23;452.70;;;423.17;;
46613;SDS011;32338;50.430;6.806;2022-09-13T05:19:49;406.55;;;381.00;;
46613;SDS011;32338;50.430;6.806;2022-09-13T05:22:16;430.23;;;404.08;;
46613;SDS011;32338;50.430;6.806;2022-09-13T05:24:42;461.27;;;433.05;;
46613;SDS011;32338;50.430;6.806;2022-09-13T05:27:09;425.10;;;398.83;;
46613;SDS011;32338;50.430;6.806;2022-09-13T05:29:36;444.55;;;417.27;;
46613;SDS011;32338;50.430;6.806;2022-09-13T05:32:02;430.65;;;404.17;;
46613;SDS011;32338;50.430;6.806;2022-09-13T05:34:30;422.92;;;396.17;;
46613;SDS011;32338;50.430;6.806;2022-09-13T05:36:57;422.33;;;396.88;;
46613;SDS011;32338;50.430;6.806;2022-09-13T05:39:24;410.13;;;385.13;;
46613;SDS011;32338;50.430;6.806;2022-09-13T05:41:50;428.48;;;401.92;;
46613;SDS011;32338;50.430;6.806;2022-09-13T05:44:17;444.63;;;417.38;;
46613;SDS011;32338;50.430;6.806;2022-09-13T05:46:45;426.98;;;401.23;;
46613;SDS011;32338;50.430;6.806;2022-09-13T05:49:12;395.20;;;371.40;;
46613;SDS011;32338;50.430;6.806;2022-09-13T05:51:41;411.75;;;386.73;;
46613;SDS011;32338;50.430;6.806;2022-09-13T05:54:09;410.55;;;385.45;;
46613;SDS011;32338;50.430;6.806;2022-09-13T05:56:36;428.35;;;401.17;;
46613;SDS011;32338;50.430;6.806;2022-09-13T05:59:03;407.58;;;381.50;;
46613;SDS011;32338;50.430;6.806;2022-09-13T06:01:29;453.70;;;425.67;;
46613;SDS011;32338;50.430;6.806;2022-09-13T06:03:56;417.85;;;391.00;;
46613;SDS011;32338;50.430;6.806;2022-09-13T06:06:24;410.95;;;385.33;;
46613;SDS011;32338;50.430;6.806;2022-09-13T06:08:52;421.45;;;395.17;;
46613;SDS011;32338;50.430;6.806;2022-09-13T06:11:19;404.23;;;379.08;;
46613;SDS011;32338;50.430;6.806;2022-09-13T06:13:46;430.92;;;404.40;;
46613;SDS011;32338;50.430;6.806;2022-09-13T06:16:13;417.38;;;391.42;;
46613;SDS011;32338;50.430;6.806;2022-09-13T06:18:41;418.42;;;392.55;;
46613;SDS011;32338;50.430;6.806;2022-09-13T06:21:08;434.77;;;407.73;;
46613;SDS011;32338;50.430;6.806;2022-09-13T06:23:36;415.70;;;390.13;;
46613;SDS011;32338;50.430;6.806;2022-09-13T06:26:05;415.90;;;389.52;;
46613;SDS011;32338;50.430;6.806;2022-09-13T06:28:34;404.20;;;379.05;;
46613;SDS011;32338;50.430;6.806;2022-09-13T06:31:02;421.60;;;395.08;;
46613;SDS011;32338;50.430;6.806;2022-09-13T06:33:30;431.75;;;405.02;;
46613;SDS011;32338;50.430;6.806;2022-09-13T06:36:01;422.85;;;395.95;;
46613;SDS011;32338;50.430;6.806;2022-09-13T06:38:29;396.67;;;372.33;;
46613;SDS011;32338;50.430;6.806;2022-09-13T06:40:59;403.80;;;379.02;;
46613;SDS011;32338;50.430;6.806;2022-09-13T06:43:28;421.02;;;394.50;;
46613;SDS011;32338;50.430;6.806;2022-09-13T06:45:58;445.88;;;418.05;;
46613;SDS011;32338;50.430;6.806;2022-09-13T06:48:25;431.90;;;404.83;;
46613;SDS011;32338;50.430;6.806;2022-09-13T06:50:52;427.63;;;401.13;;
46613;SDS011;32338;50.430;6.806;2022-09-13T06:53:22;421.33;;;395.10;;
46613;SDS011;32338;50.430;6.806;2022-09-13T06:55:53;463.60;;;433.65;;
46613;SDS011;32338;50.430;6.806;2022-09-13T06:58:25;423.90;;;397.60;;
46613;SDS011;32338;50.430;6.806;2022-09-13T07:00:55;423.25;;;397.17;;
46613;SDS011;32338;50.430;6.806;2022-09-13T07:03:37;409.45;;;384.00;;
46613;SDS011;32338;50.430;6.806;2022-09-13T07:06:08;436.73;;;408.75;;
46613;SDS011;32338;50.430;6.806;2022-09-13T07:08:36;445.20;;;417.35;;
46613;SDS011;32338;50.430;6.806;2022-09-13T07:11:04;444.33;;;416.33;;
46613;SDS011;32338;50.430;6.806;2022-09-13T07:13:31;446.38;;;417.88;;
46613;SDS011;32338;50.430;6.806;2022-09-13T07:16:01;459.48;;;430.67;;
46613;SDS011;32338;50.430;6.806;2022-09-13T07:18:28;444.20;;;415.30;;
46613;SDS011;32338;50.430;6.806;2022-09-13T07:20:57;434.38;;;407.38;;
46613;SDS011;32338;50.430;6.806;2022-09-13T07:23:25;441.17;;;413.08;;
46613;SDS011;32338;50.430;6.806;2022-09-13T07:25:53;456.60;;;427.33;;
46613;SDS011;32338;50.430;6.806;2022-09-13T07:28:20;468.67;;;438.70;;
46613;SDS011;32338;50.430;6.806;2022-09-13T07:30:46;453.65;;;424.58;;
46613;SDS011;32338;50.430;6.806;2022-09-13T07:33:14;462.85;;;432.67;;
46613;SDS011;32338;50.430;6.806;2022-09-13T07:35:41;448.58;;;420.10;;
46613;SDS011;32338;50.430;6.806;2022-09-13T07:38:07;440.80;;;412.58;;
46613;SDS011;32338;50.430;6.806;2022-09-13T07:40:34;464.33;;;434.23;;
46613;SDS011;32338;50.430;6.806;2022-09-13T07:43:01;460.30;;;431.15;;
46613;SDS011;32338;50.430;6.806;2022-09-13T07:45:27;449.15;;;420.35;;
46613;SDS011;32338;50.430;6.806;2022-09-13T07:47:54;437.58;;;409.23;;
46613;SDS011;32338;50.430;6.806;2022-09-13T07:50:22;464.42;;;434.58;;
46613;SDS011;32338;50.430;6.806;2022-09-13T07:52:48;464.92;;;435.05;;
46613;SDS011;32338;50.430;6.806;2022-09-13T07:55:15;440.80;;;413.08;;
46613;SDS011;32338;50.430;6.806;2022-09-13T07:57:41;444.77;;;416.48;;
46613;SDS011;32338;50.430;6.806;2022-09-13T08:00:09;468.20;;;437.90;;
46613;SDS011;32338;50.430;6.806;2022-09-13T08:02:36;466.90;;;436.27;;
46613;SDS011;32338;50.430;6.806;2022-09-13T08:05:03;454.38;;;425.25;;
46613;SDS011;32338;50.430;6.806;2022-09-13T08:07:31;517.95;;;485.02;;
46613;SDS011;32338;50.430;6.806;2022-09-13T08:09:58;519.10;;;484.70;;
46613;SDS011;32338;50.430;6.806;2022-09-13T08:12:24;487.50;;;455.90;;
46613;SDS011;32338;50.430;6.806;2022-09-13T08:14:51;509.90;;;477.20;;
46613;SDS011;32338;50.430;6.806;2022-09-13T08:17:17;472.20;;;441.80;;
46613;SDS011;32338;50.430;6.806;2022-09-13T08:19:44;483.02;;;452.50;;
46613;SDS011;32338;50.430;6.806;2022-09-13T08:22:10;502.35;;;469.23;;
46613;SDS011;32338;50.430;6.806;2022-09-13T08:24:38;468.50;;;438.60;;
46613;SDS011;32338;50.430;6.806;2022-09-13T08:27:05;493.70;;;461.77;;
46613;SDS011;32338;50.430;6.806;2022-09-13T08:29:32;478.17;;;447.65;;
46613;SDS011;32338;50.430;6.806;2022-09-13T08:31:58;504.25;;;471.92;;
46613;SDS011;32338;50.430;6.806;2022-09-13T08:34:25;454.73;;;424.92;;
46613;SDS011;32338;50.430;6.806;2022-09-13T08:36:52;467.92;;;437.83;;
46613;SDS011;32338;50.430;6.806;2022-09-13T08:39:18;462.17;;;432.70;;
46613;SDS011;32338;50.430;6.806;2022-09-13T08:44:35;476.15;;;445.92;;
46613;SDS011;32338;50.430;6.806;2022-09-13T08:47:12;443.52;;;414.83;;
46613;SDS011;32338;50.430;6.806;2022-09-13T08:49:50;448.17;;;419.25;;
46613;SDS011;32338;50.430;6.806;2022-09-13T08:52:23;474.27;;;444.25;;
46613;SDS011;32338;50.430;6.806;2022-09-13T08:54:55;477.48;;;446.13;;
46613;SDS011;32338;50.430;6.806;2022-09-13T08:57:25;456.90;;;427.77;;
46613;SDS011;32338;50.430;6.806;2022-09-13T08:59:58;456.40;;;427.65;;
46613;SDS011;32338;50.430;6.806;2022-09-13T09:05:19;485.10;;;453.75;;
46613;SDS011;32338;50.430;6.806;2022-09-13T09:07:47;575.20;;;537.47;;
46613;SDS011;32338;50.430;6.806;2022-09-13T09:10:19;608.25;;;566.88;;
46613;SDS011;32338;50.430;6.806;2022-09-13T09:12:49;631.83;;;587.75;;
46613;SDS011;32338;50.430;6.806;2022-09-13T09:15:22;630.20;;;586.83;;
46613;SDS011;32338;50.430;6.806;2022-09-13T09:17:53;626.53;;;583.78;;
46613;SDS011;32338;50.430;6.806;2022-09-13T09:20:25;671.25;;;623.38;;
46613;SDS011;32338;50.430;6.806;2022-09-13T09:22:57;649.75;;;603.20;;
46613;SDS011;32338;50.430;6.806;2022-09-13T09:25:27;670.65;;;623.20;;
46613;SDS011;32338;50.430;6.806;2022-09-13T09:27:55;660.33;;;613.13;;
46613;SDS011;32338;50.430;6.806;2022-09-13T09:30:23;682.33;;;634.00;;
46613;SDS011;32338;50.430;6.806;2022-09-13T09:33:03;675.47;;;628.17;;
46613;SDS011;32338;50.430;6.806;2022-09-13T09:35:45;678.80;;;630.60;;
46613;SDS011;32338;50.430;6.806;2022-09-13T09:38:32;718.72;;;668.13;;
46613;SDS011;32338;50.430;6.806;2022-09-13T09:41:04;664.92;;;617.72;;
46613;SDS011;32338;50.430;6.806;2022-09-13T09:43:38;666.95;;;618.30;;
46613;SDS011;32338;50.430;6.806;2022-09-13T09:46:11;704.08;;;650.75;;
46613;SDS011;32338;50.430;6.806;2022-09-13T09:48:43;686.55;;;638.03;;
46613;SDS011;32338;50.430;6.806;2022-09-13T09:51:16;661.92;;;615.20;;
46613;SDS011;32338;50.430;6.806;2022-09-13T09:53:46;658.78;;;610.30;;
46613;SDS011;32338;50.430;6.806;2022-09-13T09:56:19;675.00;;;626.97;;
46613;SDS011;32338;50.430;6.806;2022-09-13T09:58:49;664.40;;;615.70;;
46613;SDS011;32338;50.430;6.806;2022-09-13T10:01:19;700.25;;;650.85;;
46613;SDS011;32338;50.430;6.806;2022-09-13T10:03:49;673.13;;;626.20;;
46613;SDS011;32338;50.430;6.806;2022-09-13T10:06:20;660.85;;;614.10;;
46613;SDS011;32338;50.430;6.806;2022-09-13T10:08:53;638.95;;;592.63;;
46613;SDS011;32338;50.430;6.806;2022-09-13T10:11:24;650.38;;;604.22;;
46613;SDS011;32338;50.430;6.806;2022-09-13T10:14:05;628.65;;;584.90;;
46613;SDS011;32338;50.430;6.806;2022-09-13T10:16:31;640.38;;;594.22;;
46613;SDS011;32338;50.430;6.806;2022-09-13T10:19:15;639.05;;;594.35;;
46613;SDS011;32338;50.430;6.806;2022-09-13T10:21:58;640.80;;;595.72;;
46613;SDS011;32338;50.430;6.806;2022-09-13T10:24:26;651.88;;;604.47;;
46613;SDS011;32338;50.430;6.806;2022-09-13T10:26:54;614.97;;;571.25;;
46613;SDS011;32338;50.430;6.806;2022-09-13T10:29:22;657.20;;;610.35;;
46613;SDS011;32338;50.430;6.806;2022-09-13T10:31:50;663.70;;;616.17;;
46613;SDS011;32338;50.430;6.806;2022-09-13T10:34:20;637.00;;;592.15;;
46613;SDS011;32338;50.430;6.806;2022-09-13T10:36:51;649.10;;;602.88;;
46613;SDS011;32338;50.430;6.806;2022-09-13T10:39:22;673.60;;;624.92;;
46613;SDS011;32338;50.430;6.806;2022-09-13T10:41:50;662.00;;;614.97;;
46613;SDS011;32338;50.430;6.806;2022-09-13T10:44:23;663.90;;;616.60;;
46613;SDS011;32338;50.430;6.806;2022-09-13T10:46:53;636.78;;;591.97;;
46613;SDS011;32338;50.430;6.806;2022-09-13T10:49:37;653.78;;;608.95;;
46613;SDS011;32338;50.430;6.806;2022-09-13T10:52:22;649.40;;;603.55;;
46613;SDS011;32338;50.430;6.806;2022-09-13T10:54:51;664.58;;;619.10;;
46613;SDS011;32338;50.430;6.806;2022-09-13T11:00:08;639.55;;;595.33;;
46613;SDS011;32338;50.430;6.806;2022-09-13T11:02:46;622.08;;;578.35;;
46613;SDS011;32338;50.430;6.806;2022-09-13T11:05:30;629.67;;;584.03;;
46613;SDS011;32338;50.430;6.806;2022-09-13T11:08:11;629.22;;;586.13;;
46613;SDS011;32338;50.430;6.806;2022-09-13T11:10:49;586.50;;;546.88;;
46613;SDS011;32338;50.430;6.806;2022-09-13T11:13:30;630.58;;;587.60;;
46613;SDS011;32338;50.430;6.806;2022-09-13T11:16:11;616.60;;;573.15;;
46613;SDS011;32338;50.430;6.806;2022-09-13T11:19:07;623.60;;;580.83;;
46613;SDS011;32338;50.430;6.806;2022-09-13T11:21:52;626.35;;;583.67;;
46613;SDS011;32338;50.430;6.806;2022-09-13T11:24:38;628.38;;;585.63;;
46613;SDS011;32338;50.430;6.806;2022-09-13T11:27:15;591.53;;;551.08;;
46613;SDS011;32338;50.430;6.806;2022-09-13T11:29:57;610.70;;;569.50;;
46613;SDS011;32338;50.430;6.806;2022-09-13T11:32:39;564.38;;;526.35;;
46613;SDS011;32338;50.430;6.806;2022-09-13T11:35:21;618.90;;;574.72;;
46613;SDS011;32338;50.430;6.806;2022-09-13T11:38:01;598.60;;;557.80;;
46613;SDS011;32338;50.430;6.806;2022-09-13T11:40:44;634.65;;;591.10;;
46613;SDS011;32338;50.430;6.806;2022-09-13T11:43:23;581.90;;;543.05;;
46613;SDS011;32338;50.430;6.806;2022-09-13T11:46:01;569.30;;;531.17;;
46613;SDS011;32338;50.430;6.806;2022-09-13T11:48:37;581.08;;;541.38;;
46613;SDS011;32338;50.430;6.806;2022-09-13T11:51:22;597.08;;;556.88;;
46613;SDS011;32338;50.430;6.806;2022-09-13T11:54:01;576.05;;;537.70;;
46613;SDS011;32338;50.430;6.806;2022-09-13T11:56:40;581.85;;;543.55;;
46613;SDS011;32338;50.430;6.806;2022-09-13T11:59:14;606.50;;;566.50;;
46613;SDS011;32338;50.430;6.806;2022-09-13T12:01:47;590.28;;;550.72;;
46613;SDS011;32338;50.430;6.806;2022-09-13T12:04:20;575.65;;;536.97;;
46613;SDS011;32338;50.430;6.806;2022-09-13T12:06:51;580.33;;;541.97;;
46613;SDS011;32338;50.430;6.806;2022-09-13T12:09:22;575.83;;;537.50;;
46613;SDS011;32338;50.430;6.806;2022-09-13T12:11:53;591.97;;;553.05;;
46613;SDS011;32338;50.430;6.806;2022-09-13T12:14:29;606.10;;;564.08;;
46613;SDS011;32338;50.430;6.806;2022-09-13T12:17:02;583.10;;;545.28;;
46613;SDS011;32338;50.430;6.806;2022-09-13T12:19:35;606.25;;;564.92;;
46613;SDS011;32338;50.430;6.806;2022-09-13T12:24:37;616.65;;;574.90;;
46613;SDS011;32338;50.430;6.806;2022-09-13T12:27:09;621.80;;;578.05;;
46613;SDS011;32338;50.430;6.806;2022-09-13T12:29:39;660.05;;;614.60;;
46613;SDS011;32338;50.430;6.806;2022-09-13T12:32:13;655.08;;;608.65;;
46613;SDS011;32338;50.430;6.806;2022-09-13T12:34:44;627.15;;;583.13;;
46613;SDS011;32338;50.430;6.806;2022-09-13T12:37:34;657.88;;;611.92;;
46613;SDS011;32338;50.430;6.806;2022-09-13T12:40:33;642.63;;;597.88;;
46613;SDS011;32338;50.430;6.806;2022-09-13T12:43:14;651.45;;;606.30;;
46613;SDS011;32338;50.430;6.806;2022-09-13T12:46:00;654.15;;;608.33;;
46613;SDS011;32338;50.430;6.806;2022-09-13T12:48:44;665.75;;;618.83;;
46613;SDS011;32338;50.430;6.806;2022-09-13T12:51:27;664.80;;;617.83;;
46613;SDS011;32338;50.430;6.806;2022-09-13T12:54:16;675.38;;;627.88;;
46613;SDS011;32338;50.430;6.806;2022-09-13T12:56:58;666.25;;;619.88;;
46613;SDS011;32338;50.430;6.806;2022-09-13T12:59:37;647.75;;;601.28;;
46613;SDS011;32338;50.430;6.806;2022-09-13T13:02:35;682.50;;;635.05;;
46613;SDS011;32338;50.430;6.806;2022-09-13T13:05:05;672.67;;;625.40;;
46613;SDS011;32338;50.430;6.806;2022-09-13T13:07:50;661.88;;;614.78;;
46613;SDS011;32338;50.430;6.806;2022-09-13T13:10:26;659.90;;;613.33;;
46613;SDS011;32338;50.430;6.806;2022-09-13T13:12:56;677.03;;;629.60;;
46613;SDS011;32338;50.430;6.806;2022-09-13T13:15:54;668.05;;;621.05;;
46613;SDS011;32338;50.430;6.806;2022-09-13T13:18:45;658.30;;;612.50;;
46613;SDS011;32338;50.430;6.806;2022-09-13T13:21:25;674.92;;;628.38;;
46613;SDS011;32338;50.430;6.806;2022-09-13T13:30:33;660.75;;;614.47;;
46613;SDS011;32338;50.430;6.806;2022-09-13T13:33:10;632.15;;;587.33;;
46613;SDS011;32338;50.430;6.806;2022-09-13T13:35:40;649.00;;;604.10;;
46613;SDS011;32338;50.430;6.806;2022-09-13T13:38:13;658.35;;;611.70;;
46613;SDS011;32338;50.430;6.806;2022-09-13T13:41:00;675.15;;;627.58;;
46613;SDS011;32338;50.430;6.806;2022-09-13T13:43:34;659.20;;;611.70;;
46613;SDS011;32338;50.430;6.806;2022-09-13T13:55:28;644.10;;;598.58;;
46613;SDS011;32338;50.430;6.806;2022-09-13T13:57:59;662.08;;;615.60;;
46613;SDS011;32338;50.430;6.806;2022-09-13T14:00:29;672.50;;;625.55;;
46613;SDS011;32338;50.430;6.806;2022-09-13T14:03:04;677.42;;;629.08;;
46613;SDS011;32338;50.430;6.806;2022-09-13T14:05:43;657.85;;;612.05;;
46613;SDS011;32338;50.430;6.806;2022-09-13T14:08:25;663.30;;;616.90;;
46613;SDS011;32338;50.430;6.806;2022-09-13T14:10:58;654.40;;;608.35;;
46613;SDS011;32338;50.430;6.806;2022-09-13T14:13:43;624.63;;;579.78;;
46613;SDS011;32338;50.430;6.806;2022-09-13T14:16:21;666.38;;;618.97;;
46613;SDS011;32338;50.430;6.806;2022-09-13T14:19:09;658.28;;;613.03;;
46613;SDS011;32338;50.430;6.806;2022-09-13T14:22:11;660.25;;;615.03;;
46613;SDS011;32338;50.430;6.806;2022-09-13T14:24:40;656.45;;;610.35;;
46613;SDS011;32338;50.430;6.806;2022-09-13T14:27:14;660.88;;;615.60;;
46613;SDS011;32338;50.430;6.806;2022-09-13T14:29:44;681.03;;;632.50;;
46613;SDS011;32338;50.430;6.806;2022-09-13T14:32:15;662.35;;;616.50;;
46613;SDS011;32338;50.430;6.806;2022-09-13T14:34:52;670.25;;;623.08;;
46613;SDS011;32338;50.430;6.806;2022-09-13T14:37:23;653.70;;;607.63;;
46613;SDS011;32338;50.430;6.806;2022-09-13T14:39:54;675.20;;;627.50;;
46613;SDS011;32338;50.430;6.806;2022-09-13T14:42:23;673.13;;;625.55;;
46613;SDS011;32338;50.430;6.806;2022-09-13T14:44:50;669.28;;;622.25;;
46613;SDS011;32338;50.430;6.806;2022-09-13T14:47:19;663.35;;;617.58;;
46613;SDS011;32338;50.430;6.806;2022-09-13T14:49:56;660.78;;;613.33;;
46613;SDS011;32338;50.430;6.806;2022-09-13T14:52:26;640.38;;;597.03;;
46613;SDS011;32338;50.430;6.806;2022-09-13T14:54:56;613.90;;;570.95;;
46613;SDS011;32338;50.430;6.806;2022-09-13T14:57:29;644.00;;;598.30;;
46613;SDS011;32338;50.430;6.806;2022-09-13T14:59:59;633.08;;;589.20;;